sensor_id;sensor_type;location;lat;lon;timestamp;temperature;humidity
8711;DHT22;4392;47.400;8.062;2023-04-24T00:01:18;13.10;99.90
8711;DHT22;4392;47.400;8.062;2023-04-24T00:03:44;13.20;99.90
8711;DHT22;4392;47.400;8.062;2023-04-24T00:06:12;13.20;99.90
8711;DHT22;4392;47.400;8.062;2023-04-24T00:08:40;13.20;99.90
8711;DHT22;4392;47.400;8.062;2023-04-24T00:11:06;13.10;99.90
8711;DHT22;4392;47.400;8.062;2023-04-24T00:13:32;12.90;99.90
8711;DHT22;4392;47.400;8.062;2023-04-24T00:15:57;12.90;99.90
8711;DHT22;4392;47.400;8.062;2023-04-24T00:18:25;13.00;99.90
8711;DHT22;4392;47.400;8.062;2023-04-24T00:20:51;13.00;99.90
8711;DHT22;4392;47.400;8.062;2023-04-24T00:23:19;13.00;99.90
8711;DHT22;4392;47.400;8.062;2023-04-24T00:25:46;12.60;99.90
8711;DHT22;4392;47.400;8.062;2023-04-24T00:28:12;12.50;99.90
8711;DHT22;4392;47.400;8.062;2023-04-24T00:30:44;12.70;99.90
8711;DHT22;4392;47.400;8.062;2023-04-24T00:33:10;12.70;99.90
8711;DHT22;4392;47.400;8.062;2023-04-24T00:35:36;12.70;99.90
8711;DHT22;4392;47.400;8.062;2023-04-24T00:38:02;12.80;99.90
8711;DHT22;4392;47.400;8.062;2023-04-24T00:40:30;13.00;99.90
8711;DHT22;4392;47.400;8.062;2023-04-24T00:43:00;13.10;99.90
8711;DHT22;4392;47.400;8.062;2023-04-24T00:45:25;12.90;99.90
8711;DHT22;4392;47.400;8.062;2023-04-24T00:47:52;12.80;99.90
8711;DHT22;4392;47.400;8.062;2023-04-24T00:50:21;12.60;99.90
8711;DHT22;4392;47.400;8.062;2023-04-24T00:52:47;12.50;99.90
8711;DHT22;4392;47.400;8.062;2023-04-24T00:55:13;12.40;99.90
8711;DHT22;4392;47.400;8.062;2023-04-24T00:57:41;12.50;99.90
8711;DHT22;4392;47.400;8.062;2023-04-24T01:00:07;12.50;99.90
8711;DHT22;4392;47.400;8.062;2023-04-24T01:02:41;12.60;99.90
8711;DHT22;4392;47.400;8.062;2023-04-24T01:05:12;12.60;99.90
8711;DHT22;4392;47.400;8.062;2023-04-24T01:07:41;12.60;99.90
8711;DHT22;4392;47.400;8.062;2023-04-24T01:10:10;12.50;99.90
8711;DHT22;4392;47.400;8.062;2023-04-24T01:12:35;12.50;99.90
8711;DHT22;4392;47.400;8.062;2023-04-24T01:15:04;12.40;99.90
8711;DHT22;4392;47.400;8.062;2023-04-24T01:17:40;12.40;99.90
8711;DHT22;4392;47.400;8.062;2023-04-24T01:20:06;12.30;99.90
8711;DHT22;4392;47.400;8.062;2023-04-24T01:22:36;12.30;99.90
8711;DHT22;4392;47.400;8.062;2023-04-24T01:25:02;12.30;99.90
8711;DHT22;4392;47.400;8.062;2023-04-24T01:27:28;12.30;99.90
8711;DHT22;4392;47.400;8.062;2023-04-24T01:29:55;12.30;99.90
8711;DHT22;4392;47.400;8.062;2023-04-24T01:32:21;12.20;99.90
8711;DHT22;4392;47.400;8.062;2023-04-24T01:34:49;12.10;99.90
8711;DHT22;4392;47.400;8.062;2023-04-24T01:37:15;12.00;99.90
8711;DHT22;4392;47.400;8.062;2023-04-24T01:39:42;12.00;99.90
8711;DHT22;4392;47.400;8.062;2023-04-24T01:42:16;12.00;99.90
8711;DHT22;4392;47.400;8.062;2023-04-24T01:44:42;12.50;99.90
8711;DHT22;4392;47.400;8.062;2023-04-24T01:47:07;13.10;99.90
8711;DHT22;4392;47.400;8.062;2023-04-24T01:49:33;12.70;99.90
8711;DHT22;4392;47.400;8.062;2023-04-24T01:52:05;12.50;99.90
8711;DHT22;4392;47.400;8.062;2023-04-24T01:54:31;12.20;99.90
8711;DHT22;4392;47.400;8.062;2023-04-24T01:56:57;12.20;99.90
8711;DHT22;4392;47.400;8.062;2023-04-24T01:59:23;12.20;99.90
8711;DHT22;4392;47.400;8.062;2023-04-24T02:01:52;12.30;99.90
8711;DHT22;4392;47.400;8.062;2023-04-24T02:04:21;12.20;99.90
8711;DHT22;4392;47.400;8.062;2023-04-24T02:06:47;12.30;99.90
8711;DHT22;4392;47.400;8.062;2023-04-24T02:09:19;12.20;99.90
8711;DHT22;4392;47.400;8.062;2023-04-24T02:11:46;12.20;99.90
8711;DHT22;4392;47.400;8.062;2023-04-24T02:14:12;12.20;99.90
8711;DHT22;4392;47.400;8.062;2023-04-24T02:16:41;12.20;99.90
8711;DHT22;4392;47.400;8.062;2023-04-24T02:19:07;12.10;99.90
8711;DHT22;4392;47.400;8.062;2023-04-24T02:21:33;12.00;99.90
8711;DHT22;4392;47.400;8.062;2023-04-24T02:24:00;12.10;99.90
8711;DHT22;4392;47.400;8.062;2023-04-24T02:26:25;12.10;99.90
8711;DHT22;4392;47.400;8.062;2023-04-24T02:28:53;12.10;99.90
8711;DHT22;4392;47.400;8.062;2023-04-24T02:31:21;12.10;99.90
8711;DHT22;4392;47.400;8.062;2023-04-24T02:33:47;12.00;99.90
8711;DHT22;4392;47.400;8.062;2023-04-24T02:36:13;11.90;99.90
8711;DHT22;4392;47.400;8.062;2023-04-24T02:38:43;12.10;99.90
8711;DHT22;4392;47.400;8.062;2023-04-24T02:41:09;12.30;99.90
8711;DHT22;4392;47.400;8.062;2023-04-24T02:43:37;12.40;99.90
8711;DHT22;4392;47.400;8.062;2023-04-24T02:46:03;12.40;99.90
8711;DHT22;4392;47.400;8.062;2023-04-24T02:48:29;12.40;99.90
8711;DHT22;4392;47.400;8.062;2023-04-24T02:50:58;12.40;99.90
8711;DHT22;4392;47.400;8.062;2023-04-24T02:53:23;12.40;99.90
8711;DHT22;4392;47.400;8.062;2023-04-24T02:55:49;12.40;99.90
8711;DHT22;4392;47.400;8.062;2023-04-24T02:58:18;12.40;99.90
8711;DHT22;4392;47.400;8.062;2023-04-24T03:00:48;12.30;99.90
8711;DHT22;4392;47.400;8.062;2023-04-24T03:03:14;12.30;99.90
8711;DHT22;4392;47.400;8.062;2023-04-24T03:05:40;12.60;99.90
8711;DHT22;4392;47.400;8.062;2023-04-24T03:08:06;12.60;99.90
8711;DHT22;4392;47.400;8.062;2023-04-24T03:10:37;12.20;99.90
8711;DHT22;4392;47.400;8.062;2023-04-24T03:13:03;12.00;99.90
8711;DHT22;4392;47.400;8.062;2023-04-24T03:15:30;11.80;99.90
8711;DHT22;4392;47.400;8.062;2023-04-24T03:18:00;11.90;99.90
8711;DHT22;4392;47.400;8.062;2023-04-24T03:20:31;11.90;99.90
8711;DHT22;4392;47.400;8.062;2023-04-24T03:22:57;12.00;99.90
8711;DHT22;4392;47.400;8.062;2023-04-24T03:25:22;12.00;99.90
8711;DHT22;4392;47.400;8.062;2023-04-24T03:27:48;12.00;99.90
8711;DHT22;4392;47.400;8.062;2023-04-24T03:30:15;11.90;99.90
8711;DHT22;4392;47.400;8.062;2023-04-24T03:32:41;11.90;99.90
8711;DHT22;4392;47.400;8.062;2023-04-24T03:35:07;11.80;99.90
8711;DHT22;4392;47.400;8.062;2023-04-24T03:37:33;11.70;99.90
8711;DHT22;4392;47.400;8.062;2023-04-24T03:40:10;11.80;99.90
8711;DHT22;4392;47.400;8.062;2023-04-24T03:42:44;11.70;99.90
8711;DHT22;4392;47.400;8.062;2023-04-24T03:45:10;11.80;99.90
8711;DHT22;4392;47.400;8.062;2023-04-24T03:47:38;11.80;99.90
8711;DHT22;4392;47.400;8.062;2023-04-24T03:50:05;11.80;99.90
8711;DHT22;4392;47.400;8.062;2023-04-24T03:52:33;11.80;99.90
8711;DHT22;4392;47.400;8.062;2023-04-24T03:54:58;12.10;99.90
8711;DHT22;4392;47.400;8.062;2023-04-24T03:57:24;12.40;99.90
8711;DHT22;4392;47.400;8.062;2023-04-24T03:59:53;11.90;99.90
8711;DHT22;4392;47.400;8.062;2023-04-24T04:02:19;11.90;99.90
8711;DHT22;4392;47.400;8.062;2023-04-24T04:04:47;11.60;99.90
8711;DHT22;4392;47.400;8.062;2023-04-24T04:07:18;11.60;99.90
8711;DHT22;4392;47.400;8.062;2023-04-24T04:09:43;11.40;99.90
8711;DHT22;4392;47.400;8.062;2023-04-24T04:12:09;11.50;99.90
8711;DHT22;4392;47.400;8.062;2023-04-24T04:14:35;11.60;99.90
8711;DHT22;4392;47.400;8.062;2023-04-24T04:17:05;11.60;99.90
8711;DHT22;4392;47.400;8.062;2023-04-24T04:19:31;11.60;99.90
8711;DHT22;4392;47.400;8.062;2023-04-24T04:21:57;11.30;99.90
8711;DHT22;4392;47.400;8.062;2023-04-24T04:24:22;11.20;99.90
8711;DHT22;4392;47.400;8.062;2023-04-24T04:26:49;11.20;99.90
8711;DHT22;4392;47.400;8.062;2023-04-24T04:29:19;11.10;99.90
8711;DHT22;4392;47.400;8.062;2023-04-24T04:31:46;11.10;99.90
8711;DHT22;4392;47.400;8.062;2023-04-24T04:34:12;11.00;99.90
8711;DHT22;4392;47.400;8.062;2023-04-24T04:36:38;10.90;99.90
8711;DHT22;4392;47.400;8.062;2023-04-24T04:39:10;12.00;99.90
8711;DHT22;4392;47.400;8.062;2023-04-24T04:41:36;11.90;99.90
8711;DHT22;4392;47.400;8.062;2023-04-24T04:44:03;11.70;99.90
8711;DHT22;4392;47.400;8.062;2023-04-24T04:46:32;11.60;99.90
8711;DHT22;4392;47.400;8.062;2023-04-24T04:49:02;11.40;99.90
8711;DHT22;4392;47.400;8.062;2023-04-24T04:51:32;11.40;99.90
8711;DHT22;4392;47.400;8.062;2023-04-24T04:53:57;11.30;99.90
8711;DHT22;4392;47.400;8.062;2023-04-24T04:56:23;11.30;99.90
8711;DHT22;4392;47.400;8.062;2023-04-24T04:58:52;11.30;99.90
8711;DHT22;4392;47.400;8.062;2023-04-24T05:01:18;11.20;99.90
8711;DHT22;4392;47.400;8.062;2023-04-24T05:03:44;11.20;99.90
8711;DHT22;4392;47.400;8.062;2023-04-24T05:06:10;11.20;99.90
8711;DHT22;4392;47.400;8.062;2023-04-24T05:08:40;11.10;99.90
8711;DHT22;4392;47.400;8.062;2023-04-24T05:11:06;11.20;99.90
8711;DHT22;4392;47.400;8.062;2023-04-24T05:13:32;11.30;99.90
8711;DHT22;4392;47.400;8.062;2023-04-24T05:15:58;11.30;99.90
8711;DHT22;4392;47.400;8.062;2023-04-24T05:18:24;11.30;99.90
8711;DHT22;4392;47.400;8.062;2023-04-24T05:20:55;11.40;99.90
8711;DHT22;4392;47.400;8.062;2023-04-24T05:23:24;11.60;99.90
8711;DHT22;4392;47.400;8.062;2023-04-24T05:25:49;11.60;99.90
8711;DHT22;4392;47.400;8.062;2023-04-24T05:28:15;11.60;99.90
8711;DHT22;4392;47.400;8.062;2023-04-24T05:30:45;11.60;99.90
8711;DHT22;4392;47.400;8.062;2023-04-24T05:33:10;11.60;99.90
8711;DHT22;4392;47.400;8.062;2023-04-24T05:35:36;11.60;99.90
8711;DHT22;4392;47.400;8.062;2023-04-24T05:38:02;11.40;99.90
8711;DHT22;4392;47.400;8.062;2023-04-24T05:40:34;11.50;99.90
8711;DHT22;4392;47.400;8.062;2023-04-24T05:43:00;11.50;99.90
8711;DHT22;4392;47.400;8.062;2023-04-24T05:45:26;11.50;99.90
8711;DHT22;4392;47.400;8.062;2023-04-24T05:47:58;11.40;99.90
8711;DHT22;4392;47.400;8.062;2023-04-24T05:50:23;11.50;99.90
8711;DHT22;4392;47.400;8.062;2023-04-24T05:52:49;11.10;99.90
8711;DHT22;4392;47.400;8.062;2023-04-24T05:55:15;11.20;99.90
8711;DHT22;4392;47.400;8.062;2023-04-24T05:57:45;11.20;99.90
8711;DHT22;4392;47.400;8.062;2023-04-24T06:00:11;11.30;99.90
8711;DHT22;4392;47.400;8.062;2023-04-24T06:02:40;11.40;99.90
8711;DHT22;4392;47.400;8.062;2023-04-24T06:05:14;11.50;99.90
8711;DHT22;4392;47.400;8.062;2023-04-24T06:07:40;11.60;99.90
8711;DHT22;4392;47.400;8.062;2023-04-24T06:10:06;11.60;99.90
8711;DHT22;4392;47.400;8.062;2023-04-24T06:12:38;12.10;99.90
8711;DHT22;4392;47.400;8.062;2023-04-24T06:15:05;12.10;99.90
8711;DHT22;4392;47.400;8.062;2023-04-24T06:17:31;11.80;99.90
8711;DHT22;4392;47.400;8.062;2023-04-24T06:19:58;11.80;99.90
8711;DHT22;4392;47.400;8.062;2023-04-24T06:22:24;11.80;99.90
8711;DHT22;4392;47.400;8.062;2023-04-24T06:24:49;11.80;99.90
8711;DHT22;4392;47.400;8.062;2023-04-24T06:27:18;11.70;99.90
8711;DHT22;4392;47.400;8.062;2023-04-24T06:29:48;11.70;99.90
8711;DHT22;4392;47.400;8.062;2023-04-24T06:32:24;11.70;99.90
8711;DHT22;4392;47.400;8.062;2023-04-24T06:34:54;11.80;99.90
8711;DHT22;4392;47.400;8.062;2023-04-24T06:37:25;11.60;99.90
8711;DHT22;4392;47.400;8.062;2023-04-24T06:39:51;11.50;99.90
8711;DHT22;4392;47.400;8.062;2023-04-24T06:42:17;11.50;99.90
8711;DHT22;4392;47.400;8.062;2023-04-24T06:44:43;11.80;99.90
8711;DHT22;4392;47.400;8.062;2023-04-24T06:47:14;12.00;99.90
8711;DHT22;4392;47.400;8.062;2023-04-24T06:49:41;12.10;99.90
8711;DHT22;4392;47.400;8.062;2023-04-24T06:52:07;12.20;99.90
8711;DHT22;4392;47.400;8.062;2023-04-24T06:54:32;12.30;99.90
8711;DHT22;4392;47.400;8.062;2023-04-24T06:57:02;12.20;99.90
8711;DHT22;4392;47.400;8.062;2023-04-24T06:59:29;12.30;99.90
8711;DHT22;4392;47.400;8.062;2023-04-24T07:01:57;12.40;99.90
8711;DHT22;4392;47.400;8.062;2023-04-24T07:04:23;12.30;99.90
8711;DHT22;4392;47.400;8.062;2023-04-24T07:06:51;12.40;99.90
8711;DHT22;4392;47.400;8.062;2023-04-24T07:09:19;12.50;99.90
8711;DHT22;4392;47.400;8.062;2023-04-24T07:11:45;12.30;99.90
8711;DHT22;4392;47.400;8.062;2023-04-24T07:14:11;12.40;99.90
8711;DHT22;4392;47.400;8.062;2023-04-24T07:16:43;12.60;99.90
8711;DHT22;4392;47.400;8.062;2023-04-24T07:19:09;12.60;99.90
8711;DHT22;4392;47.400;8.062;2023-04-24T07:21:35;12.60;99.90
8711;DHT22;4392;47.400;8.062;2023-04-24T07:24:07;12.50;99.90
8711;DHT22;4392;47.400;8.062;2023-04-24T07:26:37;12.50;99.90
8711;DHT22;4392;47.400;8.062;2023-04-24T07:29:06;12.10;99.90
8711;DHT22;4392;47.400;8.062;2023-04-24T07:31:32;11.70;99.90
8711;DHT22;4392;47.400;8.062;2023-04-24T07:33:58;11.20;99.90
8711;DHT22;4392;47.400;8.062;2023-04-24T07:36:24;10.70;99.90
8711;DHT22;4392;47.400;8.062;2023-04-24T07:38:54;10.60;99.90
8711;DHT22;4392;47.400;8.062;2023-04-24T07:41:21;10.40;99.90
8711;DHT22;4392;47.400;8.062;2023-04-24T07:43:47;10.10;99.90
8711;DHT22;4392;47.400;8.062;2023-04-24T07:46:12;9.90;99.90
8711;DHT22;4392;47.400;8.062;2023-04-24T07:48:38;9.90;99.90
8711;DHT22;4392;47.400;8.062;2023-04-24T07:51:07;9.80;99.90
8711;DHT22;4392;47.400;8.062;2023-04-24T07:53:35;9.80;99.90
8711;DHT22;4392;47.400;8.062;2023-04-24T07:56:01;9.90;99.90
8711;DHT22;4392;47.400;8.062;2023-04-24T07:58:26;9.90;99.90
8711;DHT22;4392;47.400;8.062;2023-04-24T08:00:55;9.80;99.90
8711;DHT22;4392;47.400;8.062;2023-04-24T08:03:21;10.00;99.90
8711;DHT22;4392;47.400;8.062;2023-04-24T08:05:47;10.00;99.90
8711;DHT22;4392;47.400;8.062;2023-04-24T08:08:13;10.00;99.90
8711;DHT22;4392;47.400;8.062;2023-04-24T08:10:44;9.90;99.90
8711;DHT22;4392;47.400;8.062;2023-04-24T08:13:10;10.00;99.90
8711;DHT22;4392;47.400;8.062;2023-04-24T08:15:39;10.10;99.90
8711;DHT22;4392;47.400;8.062;2023-04-24T08:18:09;10.10;99.90
8711;DHT22;4392;47.400;8.062;2023-04-24T08:20:37;10.20;99.90
8711;DHT22;4392;47.400;8.062;2023-04-24T08:23:03;10.20;99.90
8711;DHT22;4392;47.400;8.062;2023-04-24T08:25:31;10.40;99.20
8711;DHT22;4392;47.400;8.062;2023-04-24T08:28:02;10.50;97.90
8711;DHT22;4392;47.400;8.062;2023-04-24T08:30:29;10.60;97.50
8711;DHT22;4392;47.400;8.062;2023-04-24T08:33:02;10.70;97.40
8711;DHT22;4392;47.400;8.062;2023-04-24T08:35:28;11.00;95.90
8711;DHT22;4392;47.400;8.062;2023-04-24T08:38:01;11.20;95.50
8711;DHT22;4392;47.400;8.062;2023-04-24T08:40:28;11.30;95.10
8711;DHT22;4392;47.400;8.062;2023-04-24T08:42:59;11.50;94.00
8711;DHT22;4392;47.400;8.062;2023-04-24T08:45:24;11.40;93.30
8711;DHT22;4392;47.400;8.062;2023-04-24T08:47:53;11.30;93.60
8711;DHT22;4392;47.400;8.062;2023-04-24T08:50:24;11.20;92.80
8711;DHT22;4392;47.400;8.062;2023-04-24T08:52:51;11.10;92.40
8711;DHT22;4392;47.400;8.062;2023-04-24T08:55:19;11.10;92.50
8711;DHT22;4392;47.400;8.062;2023-04-24T08:57:51;11.00;92.50
8711;DHT22;4392;47.400;8.062;2023-04-24T09:00:21;11.20;92.00
8711;DHT22;4392;47.400;8.062;2023-04-24T09:02:49;11.10;92.40
8711;DHT22;4392;47.400;8.062;2023-04-24T09:05:16;11.20;91.70
8711;DHT22;4392;47.400;8.062;2023-04-24T09:07:45;11.00;92.40
8711;DHT22;4392;47.400;8.062;2023-04-24T09:10:20;11.10;92.50
8711;DHT22;4392;47.400;8.062;2023-04-24T09:12:50;11.10;92.00
8711;DHT22;4392;47.400;8.062;2023-04-24T09:15:17;11.10;92.20
8711;DHT22;4392;47.400;8.062;2023-04-24T09:17:43;11.10;92.50
8711;DHT22;4392;47.400;8.062;2023-04-24T09:20:09;11.10;92.40
8711;DHT22;4392;47.400;8.062;2023-04-24T09:22:37;11.10;92.50
8711;DHT22;4392;47.400;8.062;2023-04-24T09:25:07;11.20;92.40
8711;DHT22;4392;47.400;8.062;2023-04-24T09:27:42;11.10;92.20
8711;DHT22;4392;47.400;8.062;2023-04-24T09:30:10;11.20;91.90
8711;DHT22;4392;47.400;8.062;2023-04-24T09:32:40;11.20;91.90
8711;DHT22;4392;47.400;8.062;2023-04-24T09:35:18;11.10;91.40
8711;DHT22;4392;47.400;8.062;2023-04-24T09:37:48;11.10;91.10
8711;DHT22;4392;47.400;8.062;2023-04-24T09:40:19;11.20;91.20
8711;DHT22;4392;47.400;8.062;2023-04-24T09:42:54;11.30;91.50
8711;DHT22;4392;47.400;8.062;2023-04-24T09:45:31;11.40;91.50
8711;DHT22;4392;47.400;8.062;2023-04-24T09:48:00;11.40;91.60
8711;DHT22;4392;47.400;8.062;2023-04-24T09:50:25;11.40;91.50
8711;DHT22;4392;47.400;8.062;2023-04-24T09:52:59;11.40;90.80
8711;DHT22;4392;47.400;8.062;2023-04-24T09:55:26;11.60;90.50
8711;DHT22;4392;47.400;8.062;2023-04-24T09:57:57;11.70;88.80
8711;DHT22;4392;47.400;8.062;2023-04-24T10:00:24;11.80;88.90
8711;DHT22;4392;47.400;8.062;2023-04-24T10:02:54;11.80;88.40
8711;DHT22;4392;47.400;8.062;2023-04-24T10:05:36;11.80;87.50
8711;DHT22;4392;47.400;8.062;2023-04-24T10:08:11;12.00;85.90
8711;DHT22;4392;47.400;8.062;2023-04-24T10:10:42;12.00;83.40
8711;DHT22;4392;47.400;8.062;2023-04-24T10:13:12;12.00;84.30
8711;DHT22;4392;47.400;8.062;2023-04-24T10:15:39;12.20;83.80
8711;DHT22;4392;47.400;8.062;2023-04-24T10:18:10;12.10;83.10
8711;DHT22;4392;47.400;8.062;2023-04-24T10:20:39;11.90;83.60
8711;DHT22;4392;47.400;8.062;2023-04-24T10:23:15;11.80;83.10
8711;DHT22;4392;47.400;8.062;2023-04-24T10:25:46;11.70;83.50
8711;DHT22;4392;47.400;8.062;2023-04-24T10:28:12;11.80;82.30
8711;DHT22;4392;47.400;8.062;2023-04-24T10:30:39;11.80;81.30
8711;DHT22;4392;47.400;8.062;2023-04-24T10:33:13;11.80;81.20
8711;DHT22;4392;47.400;8.062;2023-04-24T10:35:49;11.90;81.20
8711;DHT22;4392;47.400;8.062;2023-04-24T10:38:21;12.00;80.70
8711;DHT22;4392;47.400;8.062;2023-04-24T10:40:50;12.20;80.10
8711;DHT22;4392;47.400;8.062;2023-04-24T10:43:17;12.10;78.70
8711;DHT22;4392;47.400;8.062;2023-04-24T10:46:01;12.20;78.90
8711;DHT22;4392;47.400;8.062;2023-04-24T10:48:27;12.20;78.40
8711;DHT22;4392;47.400;8.062;2023-04-24T10:50:55;12.40;79.50
8711;DHT22;4392;47.400;8.062;2023-04-24T10:53:29;12.70;77.90
8711;DHT22;4392;47.400;8.062;2023-04-24T10:58:49;12.60;76.70
8711;DHT22;4392;47.400;8.062;2023-04-24T11:01:31;12.50;76.80
8711;DHT22;4392;47.400;8.062;2023-04-24T11:04:02;12.40;75.50
8711;DHT22;4392;47.400;8.062;2023-04-24T11:06:38;12.10;76.70
8711;DHT22;4392;47.400;8.062;2023-04-24T11:09:14;12.00;77.20
8711;DHT22;4392;47.400;8.062;2023-04-24T11:11:45;12.00;78.60
8711;DHT22;4392;47.400;8.062;2023-04-24T11:14:17;12.00;78.70
8711;DHT22;4392;47.400;8.062;2023-04-24T11:16:51;12.00;78.70
8711;DHT22;4392;47.400;8.062;2023-04-24T11:19:21;12.10;78.90
8711;DHT22;4392;47.400;8.062;2023-04-24T11:24:39;12.10;79.30
8711;DHT22;4392;47.400;8.062;2023-04-24T11:27:22;11.90;79.40
8711;DHT22;4392;47.400;8.062;2023-04-24T11:30:02;11.90;79.70
8711;DHT22;4392;47.400;8.062;2023-04-24T11:32:41;12.00;79.20
8711;DHT22;4392;47.400;8.062;2023-04-24T11:37:48;12.20;77.40
8711;DHT22;4392;47.400;8.062;2023-04-24T11:40:16;12.20;77.60
8711;DHT22;4392;47.400;8.062;2023-04-24T11:42:52;12.30;77.60
8711;DHT22;4392;47.400;8.062;2023-04-24T11:45:25;12.20;78.10
8711;DHT22;4392;47.400;8.062;2023-04-24T11:47:52;12.30;78.70
8711;DHT22;4392;47.400;8.062;2023-04-24T11:50:20;12.40;79.20
8711;DHT22;4392;47.400;8.062;2023-04-24T11:52:54;12.40;77.90
8711;DHT22;4392;47.400;8.062;2023-04-24T11:57:50;12.40;78.80
8711;DHT22;4392;47.400;8.062;2023-04-24T12:00:19;12.50;78.50
8711;DHT22;4392;47.400;8.062;2023-04-24T12:02:49;12.60;76.10
8711;DHT22;4392;47.400;8.062;2023-04-24T12:05:27;12.90;75.40
8711;DHT22;4392;47.400;8.062;2023-04-24T12:07:57;13.00;74.00
8711;DHT22;4392;47.400;8.062;2023-04-24T12:10:24;13.10;73.50
8711;DHT22;4392;47.400;8.062;2023-04-24T12:12:51;13.10;74.10
8711;DHT22;4392;47.400;8.062;2023-04-24T12:15:23;12.90;73.30
8711;DHT22;4392;47.400;8.062;2023-04-24T12:17:51;12.90;74.00
8711;DHT22;4392;47.400;8.062;2023-04-24T12:20:35;12.90;73.90
8711;DHT22;4392;47.400;8.062;2023-04-24T12:23:01;13.10;73.50
8711;DHT22;4392;47.400;8.062;2023-04-24T12:25:29;13.20;72.80
8711;DHT22;4392;47.400;8.062;2023-04-24T12:30:46;13.30;71.30
8711;DHT22;4392;47.400;8.062;2023-04-24T12:33:17;13.20;70.60
8711;DHT22;4392;47.400;8.062;2023-04-24T12:35:50;13.20;69.90
8711;DHT22;4392;47.400;8.062;2023-04-24T12:38:23;13.20;70.20
8711;DHT22;4392;47.400;8.062;2023-04-24T12:41:02;13.20;69.10
8711;DHT22;4392;47.400;8.062;2023-04-24T12:43:29;13.10;69.70
8711;DHT22;4392;47.400;8.062;2023-04-24T12:45:59;13.20;70.00
8711;DHT22;4392;47.400;8.062;2023-04-24T12:48:26;13.10;69.50
8711;DHT22;4392;47.400;8.062;2023-04-24T12:50:51;13.20;70.30
8711;DHT22;4392;47.400;8.062;2023-04-24T12:53:17;13.10;71.30
8711;DHT22;4392;47.400;8.062;2023-04-24T12:55:43;13.10;71.50
8711;DHT22;4392;47.400;8.062;2023-04-24T12:58:13;13.00;72.00
8711;DHT22;4392;47.400;8.062;2023-04-24T13:00:39;12.80;73.10
8711;DHT22;4392;47.400;8.062;2023-04-24T13:03:08;12.70;74.40
8711;DHT22;4392;47.400;8.062;2023-04-24T13:05:36;12.80;74.20
8711;DHT22;4392;47.400;8.062;2023-04-24T13:08:02;12.90;75.50
8711;DHT22;4392;47.400;8.062;2023-04-24T13:10:30;12.90;74.80
8711;DHT22;4392;47.400;8.062;2023-04-24T13:13:01;13.10;75.60
8711;DHT22;4392;47.400;8.062;2023-04-24T13:15:28;13.10;76.10
8711;DHT22;4392;47.400;8.062;2023-04-24T13:17:56;13.00;76.20
8711;DHT22;4392;47.400;8.062;2023-04-24T13:20:26;12.90;75.30
8711;DHT22;4392;47.400;8.062;2023-04-24T13:22:52;12.70;76.50
8711;DHT22;4392;47.400;8.062;2023-04-24T13:25:20;12.60;77.70
8711;DHT22;4392;47.400;8.062;2023-04-24T13:27:52;12.40;78.80
8711;DHT22;4392;47.400;8.062;2023-04-24T13:30:17;12.40;78.60
8711;DHT22;4392;47.400;8.062;2023-04-24T13:32:43;12.30;80.90
8711;DHT22;4392;47.400;8.062;2023-04-24T13:35:09;12.10;82.40
8711;DHT22;4392;47.400;8.062;2023-04-24T13:37:35;12.10;84.70
8711;DHT22;4392;47.400;8.062;2023-04-24T13:40:07;12.10;85.00
8711;DHT22;4392;47.400;8.062;2023-04-24T13:42:33;12.30;85.50
8711;DHT22;4392;47.400;8.062;2023-04-24T13:45:07;12.30;85.80
8711;DHT22;4392;47.400;8.062;2023-04-24T13:47:33;12.40;85.10
8711;DHT22;4392;47.400;8.062;2023-04-24T13:49:59;12.30;85.80
8711;DHT22;4392;47.400;8.062;2023-04-24T13:52:25;12.30;85.80
8711;DHT22;4392;47.400;8.062;2023-04-24T13:54:56;12.40;85.80
8711;DHT22;4392;47.400;8.062;2023-04-24T13:57:24;12.50;86.30
8711;DHT22;4392;47.400;8.062;2023-04-24T13:59:54;12.80;85.00
8711;DHT22;4392;47.400;8.062;2023-04-24T14:02:21;13.10;84.30
8711;DHT22;4392;47.400;8.062;2023-04-24T14:04:49;13.20;82.30
8711;DHT22;4392;47.400;8.062;2023-04-24T14:07:18;13.50;80.70
8711;DHT22;4392;47.400;8.062;2023-04-24T14:09:46;13.80;78.80
8711;DHT22;4392;47.400;8.062;2023-04-24T14:12:12;14.00;77.90
8711;DHT22;4392;47.400;8.062;2023-04-24T14:14:38;14.30;76.60
8711;DHT22;4392;47.400;8.062;2023-04-24T14:17:09;14.60;75.20
8711;DHT22;4392;47.400;8.062;2023-04-24T14:19:35;14.90;72.60
8711;DHT22;4392;47.400;8.062;2023-04-24T14:22:09;15.00;71.80
8711;DHT22;4392;47.400;8.062;2023-04-24T14:24:35;15.30;69.80
8711;DHT22;4392;47.400;8.062;2023-04-24T14:27:01;14.80;70.80
8711;DHT22;4392;47.400;8.062;2023-04-24T14:29:27;14.60;69.40
8711;DHT22;4392;47.400;8.062;2023-04-24T14:31:58;14.20;70.30
8711;DHT22;4392;47.400;8.062;2023-04-24T14:34:24;13.80;70.80
8711;DHT22;4392;47.400;8.062;2023-04-24T14:36:50;13.80;72.10
8711;DHT22;4392;47.400;8.062;2023-04-24T14:39:21;13.80;73.10
8711;DHT22;4392;47.400;8.062;2023-04-24T14:41:48;13.90;72.80
8711;DHT22;4392;47.400;8.062;2023-04-24T14:44:14;14.00;72.80
8711;DHT22;4392;47.400;8.062;2023-04-24T14:46:52;14.10;72.00
8711;DHT22;4392;47.400;8.062;2023-04-24T14:49:18;13.90;71.90
8711;DHT22;4392;47.400;8.062;2023-04-24T14:51:49;13.90;71.90
8711;DHT22;4392;47.400;8.062;2023-04-24T14:54:15;13.90;72.30
8711;DHT22;4392;47.400;8.062;2023-04-24T14:56:41;13.80;72.10
8711;DHT22;4392;47.400;8.062;2023-04-24T14:59:11;13.70;74.00
8711;DHT22;4392;47.400;8.062;2023-04-24T15:01:40;13.70;74.30
8711;DHT22;4392;47.400;8.062;2023-04-24T15:04:05;13.70;75.40
8711;DHT22;4392;47.400;8.062;2023-04-24T15:06:37;13.70;74.00
8711;DHT22;4392;47.400;8.062;2023-04-24T15:09:05;13.50;74.70
8711;DHT22;4392;47.400;8.062;2023-04-24T15:11:32;13.60;73.40
8711;DHT22;4392;47.400;8.062;2023-04-24T15:14:00;13.50;71.10
8711;DHT22;4392;47.400;8.062;2023-04-24T15:16:26;13.30;71.80
8711;DHT22;4392;47.400;8.062;2023-04-24T15:18:52;13.10;70.80
8711;DHT22;4392;47.400;8.062;2023-04-24T15:21:17;13.20;72.00
8711;DHT22;4392;47.400;8.062;2023-04-24T15:23:49;13.10;73.40
8711;DHT22;4392;47.400;8.062;2023-04-24T15:26:15;12.90;73.60
8711;DHT22;4392;47.400;8.062;2023-04-24T15:28:40;12.90;77.10
8711;DHT22;4392;47.400;8.062;2023-04-24T15:31:12;13.00;78.10
8711;DHT22;4392;47.400;8.062;2023-04-24T15:33:38;13.20;75.00
8711;DHT22;4392;47.400;8.062;2023-04-24T15:36:06;13.30;75.70
8711;DHT22;4392;47.400;8.062;2023-04-24T15:38:33;13.50;76.00
8711;DHT22;4392;47.400;8.062;2023-04-24T15:41:05;13.60;75.80
8711;DHT22;4392;47.400;8.062;2023-04-24T15:43:30;13.80;78.30
8711;DHT22;4392;47.400;8.062;2023-04-24T15:46:06;14.10;75.70
8711;DHT22;4392;47.400;8.062;2023-04-24T15:48:32;14.30;74.90
8711;DHT22;4392;47.400;8.062;2023-04-24T15:50:58;14.40;74.50
8711;DHT22;4392;47.400;8.062;2023-04-24T15:53:29;14.20;74.80
8711;DHT22;4392;47.400;8.062;2023-04-24T15:55:57;14.10;75.60
8711;DHT22;4392;47.400;8.062;2023-04-24T15:58:24;14.10;74.20
8711;DHT22;4392;47.400;8.062;2023-04-24T16:00:56;13.90;75.60
8711;DHT22;4392;47.400;8.062;2023-04-24T16:03:22;13.90;76.30
8711;DHT22;4392;47.400;8.062;2023-04-24T16:05:53;14.00;75.60
8711;DHT22;4392;47.400;8.062;2023-04-24T16:08:19;13.50;75.60
8711;DHT22;4392;47.400;8.062;2023-04-24T16:10:46;13.60;76.50
8711;DHT22;4392;47.400;8.062;2023-04-24T16:13:22;13.70;76.20
8711;DHT22;4392;47.400;8.062;2023-04-24T16:15:48;13.70;75.50
8711;DHT22;4392;47.400;8.062;2023-04-24T16:18:15;13.70;75.50
8711;DHT22;4392;47.400;8.062;2023-04-24T16:20:45;14.00;74.60
8711;DHT22;4392;47.400;8.062;2023-04-24T16:23:10;14.10;74.10